sensor_id;sensor_type;location;lat;lon;timestamp;P1;durP1;ratioP1;P2;durP2;ratioP2
41661;SDS011;27351;45.992;12.666;2024-02-26T00:00:27;3.23;;;1.70;;
41661;SDS011;27351;45.992;12.666;2024-02-26T00:02:54;4.45;;;2.08;;
41661;SDS011;27351;45.992;12.666;2024-02-26T00:05:20;7.23;;;1.93;;
41661;SDS011;27351;45.992;12.666;2024-02-26T00:07:45;3.40;;;1.87;;
41661;SDS011;27351;45.992;12.666;2024-02-26T00:10:15;5.35;;;2.20;;
41661;SDS011;27351;45.992;12.666;2024-02-26T00:12:40;3.47;;;1.90;;
41661;SDS011;27351;45.992;12.666;2024-02-26T00:15:07;4.00;;;2.10;;
41661;SDS011;27351;45.992;12.666;2024-02-26T00:17:33;3.00;;;1.75;;
41661;SDS011;27351;45.992;12.666;2024-02-26T00:19:59;4.60;;;2.33;;
41661;SDS011;27351;45.992;12.666;2024-02-26T00:22:26;3.58;;;2.10;;
41661;SDS011;27351;45.992;12.666;2024-02-26T00:24:51;4.55;;;2.35;;
41661;SDS011;27351;45.992;12.666;2024-02-26T00:27:17;5.80;;;2.15;;
41661;SDS011;27351;45.992;12.666;2024-02-26T00:29:43;3.55;;;2.03;;
41661;SDS011;27351;45.992;12.666;2024-02-26T00:32:09;4.25;;;2.13;;
41661;SDS011;27351;45.992;12.666;2024-02-26T00:34:34;4.63;;;1.83;;
41661;SDS011;27351;45.992;12.666;2024-02-26T00:37:01;3.80;;;1.87;;
41661;SDS011;27351;45.992;12.666;2024-02-26T00:39:26;3.75;;;2.10;;
41661;SDS011;27351;45.992;12.666;2024-02-26T00:41:52;3.72;;;2.00;;
41661;SDS011;27351;45.992;12.666;2024-02-26T00:44:17;4.25;;;2.08;;
41661;SDS011;27351;45.992;12.666;2024-02-26T00:46:43;3.88;;;2.00;;
41661;SDS011;27351;45.992;12.666;2024-02-26T00:49:08;5.68;;;2.15;;
41661;SDS011;27351;45.992;12.666;2024-02-26T00:51:34;5.07;;;2.45;;
41661;SDS011;27351;45.992;12.666;2024-02-26T00:53:59;5.47;;;2.42;;
41661;SDS011;27351;45.992;12.666;2024-02-26T00:56:25;7.07;;;2.88;;
41661;SDS011;27351;45.992;12.666;2024-02-26T00:58:50;4.73;;;2.50;;
41661;SDS011;27351;45.992;12.666;2024-02-26T01:01:17;5.73;;;2.67;;
41661;SDS011;27351;45.992;12.666;2024-02-26T01:03:42;4.82;;;2.55;;
41661;SDS011;27351;45.992;12.666;2024-02-26T01:06:08;5.30;;;2.43;;
41661;SDS011;27351;45.992;12.666;2024-02-26T01:08:34;5.07;;;2.58;;
41661;SDS011;27351;45.992;12.666;2024-02-26T01:11:01;5.17;;;2.73;;
41661;SDS011;27351;45.992;12.666;2024-02-26T01:13:26;5.30;;;2.60;;
41661;SDS011;27351;45.992;12.666;2024-02-26T01:15:52;5.03;;;2.40;;
41661;SDS011;27351;45.992;12.666;2024-02-26T01:18:18;5.90;;;2.30;;
41661;SDS011;27351;45.992;12.666;2024-02-26T01:20:43;4.65;;;2.20;;
41661;SDS011;27351;45.992;12.666;2024-02-26T01:23:09;3.72;;;1.98;;
41661;SDS011;27351;45.992;12.666;2024-02-26T01:25:34;4.82;;;1.88;;
41661;SDS011;27351;45.992;12.666;2024-02-26T01:28:00;5.72;;;2.35;;
41661;SDS011;27351;45.992;12.666;2024-02-26T01:30:25;3.87;;;1.90;;
41661;SDS011;27351;45.992;12.666;2024-02-26T01:32:51;5.20;;;2.33;;
41661;SDS011;27351;45.992;12.666;2024-02-26T01:35:17;6.13;;;2.50;;
41661;SDS011;27351;45.992;12.666;2024-02-26T01:37:42;4.23;;;2.50;;
41661;SDS011;27351;45.992;12.666;2024-02-26T01:40:08;4.00;;;1.77;;
41661;SDS011;27351;45.992;12.666;2024-02-26T01:42:34;3.15;;;1.90;;
41661;SDS011;27351;45.992;12.666;2024-02-26T01:45:00;3.28;;;1.80;;
41661;SDS011;27351;45.992;12.666;2024-02-26T01:47:26;4.72;;;2.40;;
41661;SDS011;27351;45.992;12.666;2024-02-26T01:49:53;3.70;;;2.10;;
41661;SDS011;27351;45.992;12.666;2024-02-26T01:52:18;3.88;;;2.08;;
41661;SDS011;27351;45.992;12.666;2024-02-26T01:54:44;3.00;;;1.80;;
41661;SDS011;27351;45.992;12.666;2024-02-26T01:57:10;4.60;;;1.93;;
41661;SDS011;27351;45.992;12.666;2024-02-26T01:59:36;3.88;;;1.95;;
41661;SDS011;27351;45.992;12.666;2024-02-26T02:02:03;3.85;;;2.08;;
41661;SDS011;27351;45.992;12.666;2024-02-26T02:04:29;3.85;;;2.10;;
41661;SDS011;27351;45.992;12.666;2024-02-26T02:06:54;3.10;;;1.83;;
41661;SDS011;27351;45.992;12.666;2024-02-26T02:09:20;2.90;;;2.00;;
41661;SDS011;27351;45.992;12.666;2024-02-26T02:11:48;2.97;;;1.75;;
41661;SDS011;27351;45.992;12.666;2024-02-26T02:14:14;4.38;;;2.10;;
41661;SDS011;27351;45.992;12.666;2024-02-26T02:16:40;2.97;;;1.90;;
41661;SDS011;27351;45.992;12.666;2024-02-26T02:19:05;4.47;;;2.10;;
41661;SDS011;27351;45.992;12.666;2024-02-26T02:21:31;4.07;;;2.20;;
41661;SDS011;27351;45.992;12.666;2024-02-26T02:23:57;3.60;;;1.87;;
41661;SDS011;27351;45.992;12.666;2024-02-26T02:26:22;3.57;;;2.27;;
41661;SDS011;27351;45.992;12.666;2024-02-26T02:28:48;4.10;;;2.17;;
41661;SDS011;27351;45.992;12.666;2024-02-26T02:31:14;4.25;;;2.13;;
41661;SDS011;27351;45.992;12.666;2024-02-26T02:33:40;3.67;;;2.20;;
41661;SDS011;27351;45.992;12.666;2024-02-26T02:36:06;4.25;;;1.83;;
41661;SDS011;27351;45.992;12.666;2024-02-26T02:38:38;5.78;;;1.60;;
41661;SDS011;27351;45.992;12.666;2024-02-26T02:41:03;3.90;;;1.92;;
41661;SDS011;27351;45.992;12.666;2024-02-26T02:43:29;3.25;;;1.58;;
41661;SDS011;27351;45.992;12.666;2024-02-26T02:45:55;8.10;;;2.60;;
41661;SDS011;27351;45.992;12.666;2024-02-26T02:48:20;3.33;;;1.70;;
41661;SDS011;27351;45.992;12.666;2024-02-26T02:50:46;3.37;;;1.70;;
41661;SDS011;27351;45.992;12.666;2024-02-26T02:53:11;5.47;;;1.80;;
41661;SDS011;27351;45.992;12.666;2024-02-26T02:55:37;3.35;;;1.67;;
41661;SDS011;27351;45.992;12.666;2024-02-26T02:58:03;3.20;;;1.60;;
41661;SDS011;27351;45.992;12.666;2024-02-26T03:00:28;4.03;;;1.77;;
41661;SDS011;27351;45.992;12.666;2024-02-26T03:02:54;3.03;;;1.53;;
41661;SDS011;27351;45.992;12.666;2024-02-26T03:05:19;2.80;;;1.70;;
41661;SDS011;27351;45.992;12.666;2024-02-26T03:07:45;4.30;;;1.73;;
41661;SDS011;27351;45.992;12.666;2024-02-26T03:10:11;3.03;;;1.67;;
41661;SDS011;27351;45.992;12.666;2024-02-26T03:12:36;1.97;;;1.40;;
41661;SDS011;27351;45.992;12.666;2024-02-26T03:15:02;2.75;;;1.77;;
41661;SDS011;27351;45.992;12.666;2024-02-26T03:17:28;3.10;;;1.50;;
41661;SDS011;27351;45.992;12.666;2024-02-26T03:19:54;4.40;;;1.80;;
41661;SDS011;27351;45.992;12.666;2024-02-26T03:22:20;3.10;;;1.50;;
41661;SDS011;27351;45.992;12.666;2024-02-26T03:24:46;3.42;;;1.85;;
41661;SDS011;27351;45.992;12.666;2024-02-26T03:27:11;2.00;;;1.47;;
41661;SDS011;27351;45.992;12.666;2024-02-26T03:29:37;3.75;;;1.70;;
41661;SDS011;27351;45.992;12.666;2024-02-26T03:32:03;5.07;;;1.95;;
41661;SDS011;27351;45.992;12.666;2024-02-26T03:34:29;2.78;;;1.50;;
41661;SDS011;27351;45.992;12.666;2024-02-26T03:36:56;3.23;;;1.73;;
41661;SDS011;27351;45.992;12.666;2024-02-26T03:39:21;3.35;;;1.80;;
41661;SDS011;27351;45.992;12.666;2024-02-26T03:41:47;4.40;;;1.67;;
41661;SDS011;27351;45.992;12.666;2024-02-26T03:44:13;3.03;;;1.83;;
41661;SDS011;27351;45.992;12.666;2024-02-26T03:46:39;2.50;;;1.60;;
41661;SDS011;27351;45.992;12.666;2024-02-26T03:49:04;2.10;;;1.43;;
41661;SDS011;27351;45.992;12.666;2024-02-26T03:51:30;3.83;;;1.63;;
41661;SDS011;27351;45.992;12.666;2024-02-26T03:53:57;2.38;;;1.45;;
41661;SDS011;27351;45.992;12.666;2024-02-26T03:56:23;3.30;;;1.60;;
41661;SDS011;27351;45.992;12.666;2024-02-26T03:58:49;2.08;;;1.42;;
41661;SDS011;27351;45.992;12.666;2024-02-26T04:01:14;3.42;;;1.52;;
41661;SDS011;27351;45.992;12.666;2024-02-26T04:03:40;3.58;;;1.52;;
41661;SDS011;27351;45.992;12.666;2024-02-26T04:06:08;3.35;;;1.50;;
41661;SDS011;27351;45.992;12.666;2024-02-26T04:08:34;3.28;;;1.63;;
41661;SDS011;27351;45.992;12.666;2024-02-26T04:10:59;3.55;;;1.83;;
41661;SDS011;27351;45.992;12.666;2024-02-26T04:13:25;3.45;;;1.73;;
41661;SDS011;27351;45.992;12.666;2024-02-26T04:15:51;3.60;;;1.70;;
41661;SDS011;27351;45.992;12.666;2024-02-26T04:18:16;3.37;;;1.90;;
41661;SDS011;27351;45.992;12.666;2024-02-26T04:20:42;3.10;;;1.60;;
41661;SDS011;27351;45.992;12.666;2024-02-26T04:23:08;2.60;;;1.50;;
41661;SDS011;27351;45.992;12.666;2024-02-26T04:25:33;3.72;;;1.40;;
41661;SDS011;27351;45.992;12.666;2024-02-26T04:27:59;2.35;;;1.50;;
41661;SDS011;27351;45.992;12.666;2024-02-26T04:30:25;3.20;;;1.60;;
41661;SDS011;27351;45.992;12.666;2024-02-26T04:32:50;4.03;;;1.50;;
41661;SDS011;27351;45.992;12.666;2024-02-26T04:35:16;3.07;;;1.90;;
41661;SDS011;27351;45.992;12.666;2024-02-26T04:37:41;4.27;;;1.83;;
41661;SDS011;27351;45.992;12.666;2024-02-26T04:40:07;2.30;;;1.57;;
41661;SDS011;27351;45.992;12.666;2024-02-26T04:42:33;3.53;;;1.65;;
41661;SDS011;27351;45.992;12.666;2024-02-26T04:44:59;3.85;;;1.60;;
41661;SDS011;27351;45.992;12.666;2024-02-26T04:47:24;2.28;;;1.45;;
41661;SDS011;27351;45.992;12.666;2024-02-26T04:49:50;2.05;;;1.40;;
41661;SDS011;27351;45.992;12.666;2024-02-26T04:52:16;3.60;;;1.77;;
41661;SDS011;27351;45.992;12.666;2024-02-26T04:54:41;2.63;;;1.60;;
41661;SDS011;27351;45.992;12.666;2024-02-26T04:57:07;2.70;;;1.80;;
41661;SDS011;27351;45.992;12.666;2024-02-26T04:59:32;2.50;;;1.40;;
41661;SDS011;27351;45.992;12.666;2024-02-26T05:01:58;4.10;;;1.88;;
41661;SDS011;27351;45.992;12.666;2024-02-26T05:04:23;2.80;;;1.40;;
41661;SDS011;27351;45.992;12.666;2024-02-26T05:06:49;3.42;;;1.48;;
41661;SDS011;27351;45.992;12.666;2024-02-26T05:09:15;2.88;;;1.40;;
41661;SDS011;27351;45.992;12.666;2024-02-26T05:11:40;3.40;;;1.67;;
41661;SDS011;27351;45.992;12.666;2024-02-26T05:14:06;3.47;;;1.60;;
41661;SDS011;27351;45.992;12.666;2024-02-26T05:16:31;5.65;;;1.80;;
41661;SDS011;27351;45.992;12.666;2024-02-26T05:18:57;2.45;;;1.55;;
41661;SDS011;27351;45.992;12.666;2024-02-26T05:21:23;3.58;;;1.83;;
41661;SDS011;27351;45.992;12.666;2024-02-26T05:23:48;4.15;;;1.90;;
41661;SDS011;27351;45.992;12.666;2024-02-26T05:26:20;2.72;;;1.40;;
41661;SDS011;27351;45.992;12.666;2024-02-26T05:28:47;4.00;;;1.65;;
41661;SDS011;27351;45.992;12.666;2024-02-26T05:31:13;7.40;;;2.10;;
41661;SDS011;27351;45.992;12.666;2024-02-26T05:33:39;2.67;;;1.52;;
41661;SDS011;27351;45.992;12.666;2024-02-26T05:36:04;3.15;;;1.80;;
41661;SDS011;27351;45.992;12.666;2024-02-26T05:38:30;3.38;;;1.70;;
41661;SDS011;27351;45.992;12.666;2024-02-26T05:40:57;3.63;;;1.65;;
41661;SDS011;27351;45.992;12.666;2024-02-26T05:43:24;2.67;;;1.38;;
41661;SDS011;27351;45.992;12.666;2024-02-26T05:45:50;3.28;;;1.80;;
41661;SDS011;27351;45.992;12.666;2024-02-26T05:48:15;3.43;;;1.70;;
41661;SDS011;27351;45.992;12.666;2024-02-26T05:50:41;3.83;;;1.93;;
41661;SDS011;27351;45.992;12.666;2024-02-26T05:53:06;3.90;;;2.40;;
41661;SDS011;27351;45.992;12.666;2024-02-26T05:55:32;2.77;;;1.80;;
41661;SDS011;27351;45.992;12.666;2024-02-26T05:57:58;5.83;;;1.80;;
41661;SDS011;27351;45.992;12.666;2024-02-26T06:00:23;3.53;;;1.67;;
41661;SDS011;27351;45.992;12.666;2024-02-26T06:02:49;4.40;;;2.17;;
41661;SDS011;27351;45.992;12.666;2024-02-26T06:05:14;3.72;;;2.08;;
41661;SDS011;27351;45.992;12.666;2024-02-26T06:07:40;3.38;;;1.80;;
41661;SDS011;27351;45.992;12.666;2024-02-26T06:10:06;4.17;;;2.60;;
41661;SDS011;27351;45.992;12.666;2024-02-26T06:12:34;4.67;;;2.30;;
41661;SDS011;27351;45.992;12.666;2024-02-26T06:15:00;3.95;;;2.03;;
41661;SDS011;27351;45.992;12.666;2024-02-26T06:17:26;3.88;;;1.90;;
41661;SDS011;27351;45.992;12.666;2024-02-26T06:19:52;3.50;;;1.90;;
41661;SDS011;27351;45.992;12.666;2024-02-26T06:22:17;4.38;;;2.10;;
41661;SDS011;27351;45.992;12.666;2024-02-26T06:24:43;3.90;;;2.10;;
41661;SDS011;27351;45.992;12.666;2024-02-26T06:27:09;4.80;;;2.50;;
41661;SDS011;27351;45.992;12.666;2024-02-26T06:29:34;5.00;;;2.33;;
41661;SDS011;27351;45.992;12.666;2024-02-26T06:32:00;4.10;;;2.47;;
41661;SDS011;27351;45.992;12.666;2024-02-26T06:34:25;5.07;;;2.33;;
41661;SDS011;27351;45.992;12.666;2024-02-26T06:36:51;5.10;;;2.35;;
41661;SDS011;27351;45.992;12.666;2024-02-26T06:39:16;4.60;;;2.33;;
41661;SDS011;27351;45.992;12.666;2024-02-26T06:41:43;4.53;;;2.17;;
41661;SDS011;27351;45.992;12.666;2024-02-26T06:44:09;5.25;;;2.17;;
41661;SDS011;27351;45.992;12.666;2024-02-26T06:46:34;3.88;;;1.80;;
41661;SDS011;27351;45.992;12.666;2024-02-26T06:49:00;4.18;;;2.03;;
41661;SDS011;27351;45.992;12.666;2024-02-26T06:51:26;3.90;;;1.90;;
41661;SDS011;27351;45.992;12.666;2024-02-26T06:53:51;3.80;;;1.80;;
41661;SDS011;27351;45.992;12.666;2024-02-26T06:56:17;3.03;;;1.70;;
41661;SDS011;27351;45.992;12.666;2024-02-26T06:58:43;2.33;;;1.50;;
41661;SDS011;27351;45.992;12.666;2024-02-26T07:01:08;3.20;;;1.50;;
41661;SDS011;27351;45.992;12.666;2024-02-26T07:03:34;2.27;;;1.50;;
41661;SDS011;27351;45.992;12.666;2024-02-26T07:05:59;2.83;;;1.53;;
41661;SDS011;27351;45.992;12.666;2024-02-26T07:08:25;2.53;;;1.53;;
41661;SDS011;27351;45.992;12.666;2024-02-26T07:10:51;2.47;;;1.80;;
41661;SDS011;27351;45.992;12.666;2024-02-26T07:13:17;7.03;;;2.00;;
41661;SDS011;27351;45.992;12.666;2024-02-26T07:15:42;3.10;;;1.67;;
41661;SDS011;27351;45.992;12.666;2024-02-26T07:18:08;2.40;;;1.50;;
41661;SDS011;27351;45.992;12.666;2024-02-26T07:20:34;3.72;;;1.60;;
41661;SDS011;27351;45.992;12.666;2024-02-26T07:22:59;3.80;;;2.05;;
41661;SDS011;27351;45.992;12.666;2024-02-26T07:25:25;4.37;;;1.90;;
41661;SDS011;27351;45.992;12.666;2024-02-26T07:27:50;4.85;;;1.90;;
41661;SDS011;27351;45.992;12.666;2024-02-26T07:30:16;3.08;;;1.63;;
41661;SDS011;27351;45.992;12.666;2024-02-26T07:32:42;3.72;;;1.80;;
41661;SDS011;27351;45.992;12.666;2024-02-26T07:35:08;3.60;;;1.83;;
41661;SDS011;27351;45.992;12.666;2024-02-26T07:37:33;3.42;;;1.63;;
41661;SDS011;27351;45.992;12.666;2024-02-26T07:40:00;4.35;;;1.90;;
41661;SDS011;27351;45.992;12.666;2024-02-26T07:42:25;4.82;;;1.83;;
41661;SDS011;27351;45.992;12.666;2024-02-26T07:44:51;5.18;;;2.08;;
41661;SDS011;27351;45.992;12.666;2024-02-26T07:47:18;2.90;;;1.48;;
41661;SDS011;27351;45.992;12.666;2024-02-26T07:49:43;3.45;;;1.88;;
41661;SDS011;27351;45.992;12.666;2024-02-26T07:52:10;4.20;;;1.90;;
41661;SDS011;27351;45.992;12.666;2024-02-26T07:54:35;4.53;;;1.90;;
41661;SDS011;27351;45.992;12.666;2024-02-26T07:57:01;4.10;;;1.70;;
41661;SDS011;27351;45.992;12.666;2024-02-26T07:59:29;3.17;;;1.80;;
41661;SDS011;27351;45.992;12.666;2024-02-26T08:01:54;3.72;;;1.77;;
41661;SDS011;27351;45.992;12.666;2024-02-26T08:04:20;5.03;;;1.60;;
41661;SDS011;27351;45.992;12.666;2024-02-26T08:06:45;6.07;;;2.00;;
41661;SDS011;27351;45.992;12.666;2024-02-26T08:09:11;3.53;;;1.80;;
41661;SDS011;27351;45.992;12.666;2024-02-26T08:11:38;4.03;;;2.03;;
41661;SDS011;27351;45.992;12.666;2024-02-26T08:14:03;3.90;;;1.97;;
41661;SDS011;27351;45.992;12.666;2024-02-26T08:16:29;5.93;;;2.70;;
41661;SDS011;27351;45.992;12.666;2024-02-26T08:18:54;5.80;;;2.30;;
41661;SDS011;27351;45.992;12.666;2024-02-26T08:21:20;4.93;;;2.30;;
41661;SDS011;27351;45.992;12.666;2024-02-26T08:23:45;5.17;;;2.53;;
41661;SDS011;27351;45.992;12.666;2024-02-26T08:26:11;6.23;;;2.73;;
41661;SDS011;27351;45.992;12.666;2024-02-26T08:28:37;5.93;;;2.97;;
41661;SDS011;27351;45.992;12.666;2024-02-26T08:31:03;6.20;;;2.70;;
41661;SDS011;27351;45.992;12.666;2024-02-26T08:33:29;7.57;;;3.57;;
41661;SDS011;27351;45.992;12.666;2024-02-26T08:35:56;7.20;;;3.00;;
41661;SDS011;27351;45.992;12.666;2024-02-26T08:38:21;7.63;;;3.10;;
41661;SDS011;27351;45.992;12.666;2024-02-26T08:40:47;7.37;;;2.83;;
41661;SDS011;27351;45.992;12.666;2024-02-26T08:43:12;6.63;;;2.90;;
41661;SDS011;27351;45.992;12.666;2024-02-26T08:45:38;8.63;;;2.87;;
41661;SDS011;27351;45.992;12.666;2024-02-26T08:48:04;7.70;;;3.40;;
41661;SDS011;27351;45.992;12.666;2024-02-26T08:50:29;5.87;;;2.60;;
41661;SDS011;27351;45.992;12.666;2024-02-26T08:52:55;7.00;;;2.73;;
41661;SDS011;27351;45.992;12.666;2024-02-26T08:55:20;6.40;;;3.33;;
41661;SDS011;27351;45.992;12.666;2024-02-26T08:57:46;5.40;;;2.37;;
41661;SDS011;27351;45.992;12.666;2024-02-26T09:00:12;6.30;;;2.97;;
41661;SDS011;27351;45.992;12.666;2024-02-26T09:02:38;5.85;;;2.83;;
41661;SDS011;27351;45.992;12.666;2024-02-26T09:05:09;6.25;;;2.80;;
41661;SDS011;27351;45.992;12.666;2024-02-26T09:07:35;7.27;;;3.23;;
41661;SDS011;27351;45.992;12.666;2024-02-26T09:10:01;6.60;;;2.90;;
41661;SDS011;27351;45.992;12.666;2024-02-26T09:12:27;9.30;;;3.63;;
41661;SDS011;27351;45.992;12.666;2024-02-26T09:14:53;10.27;;;4.80;;
41661;SDS011;27351;45.992;12.666;2024-02-26T09:17:20;10.57;;;5.07;;
41661;SDS011;27351;45.992;12.666;2024-02-26T09:19:46;10.87;;;4.30;;
41661;SDS011;27351;45.992;12.666;2024-02-26T09:22:12;11.80;;;5.37;;
41661;SDS011;27351;45.992;12.666;2024-02-26T09:24:37;13.23;;;6.17;;
41661;SDS011;27351;45.992;12.666;2024-02-26T09:27:03;10.67;;;5.27;;
41661;SDS011;27351;45.992;12.666;2024-02-26T09:29:29;10.43;;;4.67;;
41661;SDS011;27351;45.992;12.666;2024-02-26T09:31:54;10.07;;;4.33;;
41661;SDS011;27351;45.992;12.666;2024-02-26T09:34:20;10.80;;;4.70;;
41661;SDS011;27351;45.992;12.666;2024-02-26T09:36:45;10.73;;;4.43;;
41661;SDS011;27351;45.992;12.666;2024-02-26T09:39:11;10.57;;;4.63;;
41661;SDS011;27351;45.992;12.666;2024-02-26T09:41:37;10.05;;;4.43;;
41661;SDS011;27351;45.992;12.666;2024-02-26T09:44:04;11.40;;;4.07;;
41661;SDS011;27351;45.992;12.666;2024-02-26T09:46:30;11.65;;;4.28;;
41661;SDS011;27351;45.992;12.666;2024-02-26T09:48:56;8.90;;;4.13;;
41661;SDS011;27351;45.992;12.666;2024-02-26T09:51:22;10.32;;;4.25;;
41661;SDS011;27351;45.992;12.666;2024-02-26T09:53:51;9.30;;;4.22;;
41661;SDS011;27351;45.992;12.666;2024-02-26T09:56:17;9.02;;;4.05;;
41661;SDS011;27351;45.992;12.666;2024-02-26T09:58:42;10.77;;;4.13;;
41661;SDS011;27351;45.992;12.666;2024-02-26T10:01:11;9.43;;;3.83;;
41661;SDS011;27351;45.992;12.666;2024-02-26T10:03:39;8.00;;;3.88;;
41661;SDS011;27351;45.992;12.666;2024-02-26T10:06:09;9.70;;;3.80;;
41661;SDS011;27351;45.992;12.666;2024-02-26T10:08:35;9.55;;;4.68;;
41661;SDS011;27351;45.992;12.666;2024-02-26T10:11:02;8.57;;;4.07;;
41661;SDS011;27351;45.992;12.666;2024-02-26T10:13:28;13.10;;;4.40;;
41661;SDS011;27351;45.992;12.666;2024-02-26T10:15:54;11.10;;;4.57;;
41661;SDS011;27351;45.992;12.666;2024-02-26T10:18:19;10.57;;;4.80;;
41661;SDS011;27351;45.992;12.666;2024-02-26T10:20:58;9.98;;;4.80;;
41661;SDS011;27351;45.992;12.666;2024-02-26T10:23:25;7.60;;;4.07;;
41661;SDS011;27351;45.992;12.666;2024-02-26T10:25:54;11.02;;;4.72;;
41661;SDS011;27351;45.992;12.666;2024-02-26T10:28:20;9.43;;;5.20;;
41661;SDS011;27351;45.992;12.666;2024-02-26T10:30:46;10.48;;;4.50;;
41661;SDS011;27351;45.992;12.666;2024-02-26T10:33:12;10.10;;;4.68;;
41661;SDS011;27351;45.992;12.666;2024-02-26T10:35:39;10.70;;;4.70;;
41661;SDS011;27351;45.992;12.666;2024-02-26T10:38:09;9.38;;;4.85;;
41661;SDS011;27351;45.992;12.666;2024-02-26T10:40:34;11.30;;;4.70;;
41661;SDS011;27351;45.992;12.666;2024-02-26T10:43:00;10.75;;;4.97;;
41661;SDS011;27351;45.992;12.666;2024-02-26T10:45:27;10.00;;;4.53;;
41661;SDS011;27351;45.992;12.666;2024-02-26T10:47:52;13.02;;;5.43;;
41661;SDS011;27351;45.992;12.666;2024-02-26T10:50:19;12.85;;;5.40;;
41661;SDS011;27351;45.992;12.666;2024-02-26T10:52:44;12.05;;;4.80;;
41661;SDS011;27351;45.992;12.666;2024-02-26T10:55:13;9.87;;;5.30;;
41661;SDS011;27351;45.992;12.666;2024-02-26T10:57:40;12.13;;;4.78;;
41661;SDS011;27351;45.992;12.666;2024-02-26T11:00:07;9.73;;;4.93;;
41661;SDS011;27351;45.992;12.666;2024-02-26T11:02:35;9.82;;;4.90;;
41661;SDS011;27351;45.992;12.666;2024-02-26T11:05:04;10.18;;;4.88;;
41661;SDS011;27351;45.992;12.666;2024-02-26T11:07:31;10.13;;;4.47;;
41661;SDS011;27351;45.992;12.666;2024-02-26T11:09:59;8.37;;;3.87;;
41661;SDS011;27351;45.992;12.666;2024-02-26T11:12:25;10.48;;;4.38;;
41661;SDS011;27351;45.992;12.666;2024-02-26T11:14:50;8.17;;;3.97;;
41661;SDS011;27351;45.992;12.666;2024-02-26T11:17:21;8.77;;;4.10;;
41661;SDS011;27351;45.992;12.666;2024-02-26T11:19:47;8.87;;;4.00;;
41661;SDS011;27351;45.992;12.666;2024-02-26T11:22:13;8.25;;;3.78;;
41661;SDS011;27351;45.992;12.666;2024-02-26T11:24:39;9.40;;;4.10;;
41661;SDS011;27351;45.992;12.666;2024-02-26T11:27:09;8.73;;;3.35;;
41661;SDS011;27351;45.992;12.666;2024-02-26T11:29:39;7.75;;;3.67;;
41661;SDS011;27351;45.992;12.666;2024-02-26T11:32:07;9.98;;;3.63;;
41661;SDS011;27351;45.992;12.666;2024-02-26T11:34:32;9.65;;;3.47;;
41661;SDS011;27351;45.992;12.666;2024-02-26T11:37:08;8.38;;;3.63;;
41661;SDS011;27351;45.992;12.666;2024-02-26T11:39:33;10.30;;;3.67;;
41661;SDS011;27351;45.992;12.666;2024-02-26T11:42:08;8.55;;;3.75;;
41661;SDS011;27351;45.992;12.666;2024-02-26T11:44:34;7.18;;;2.92;;
41661;SDS011;27351;45.992;12.666;2024-02-26T11:47:00;10.00;;;3.47;;
41661;SDS011;27351;45.992;12.666;2024-02-26T11:49:34;8.63;;;3.00;;
41661;SDS011;27351;45.992;12.666;2024-02-26T11:52:02;7.33;;;2.73;;
41661;SDS011;27351;45.992;12.666;2024-02-26T11:54:39;8.77;;;3.42;;
41661;SDS011;27351;45.992;12.666;2024-02-26T11:59:51;7.43;;;3.10;;
41661;SDS011;27351;45.992;12.666;2024-02-26T12:05:01;10.23;;;4.07;;
41661;SDS011;27351;45.992;12.666;2024-02-26T12:07:27;9.38;;;4.15;;
41661;SDS011;27351;45.992;12.666;2024-02-26T12:09:56;9.10;;;3.38;;
41661;SDS011;27351;45.992;12.666;2024-02-26T12:12:38;7.18;;;3.40;;
41661;SDS011;27351;45.992;12.666;2024-02-26T12:15:04;7.57;;;3.47;;
41661;SDS011;27351;45.992;12.666;2024-02-26T12:17:30;7.55;;;3.65;;
41661;SDS011;27351;45.992;12.666;2024-02-26T12:20:05;10.18;;;3.92;;
41661;SDS011;27351;45.992;12.666;2024-02-26T12:22:33;7.30;;;3.13;;
41661;SDS011;27351;45.992;12.666;2024-02-26T12:25:00;6.57;;;3.10;;
41661;SDS011;27351;45.992;12.666;2024-02-26T12:27:27;8.57;;;3.50;;
41661;SDS011;27351;45.992;12.666;2024-02-26T12:29:52;9.87;;;4.13;;
41661;SDS011;27351;45.992;12.666;2024-02-26T12:32:18;6.90;;;2.88;;
41661;SDS011;27351;45.992;12.666;2024-02-26T12:34:44;7.60;;;3.50;;
41661;SDS011;27351;45.992;12.666;2024-02-26T12:37:10;8.83;;;3.20;;
41661;SDS011;27351;45.992;12.666;2024-02-26T12:39:36;8.33;;;3.03;;
41661;SDS011;27351;45.992;12.666;2024-02-26T12:42:02;9.25;;;2.80;;
41661;SDS011;27351;45.992;12.666;2024-02-26T12:44:28;4.68;;;2.10;;
41661;SDS011;27351;45.992;12.666;2024-02-26T12:47:00;6.07;;;1.77;;
41661;SDS011;27351;45.992;12.666;2024-02-26T12:49:28;3.95;;;1.48;;
41661;SDS011;27351;45.992;12.666;2024-02-26T12:51:53;6.25;;;2.13;;
41661;SDS011;27351;45.992;12.666;2024-02-26T12:54:21;4.15;;;1.90;;
41661;SDS011;27351;45.992;12.666;2024-02-26T12:56:46;4.18;;;1.50;;
41661;SDS011;27351;45.992;12.666;2024-02-26T12:59:12;3.00;;;1.30;;
41661;SDS011;27351;45.992;12.666;2024-02-26T13:01:39;4.18;;;1.63;;
41661;SDS011;27351;45.992;12.666;2024-02-26T13:04:05;5.32;;;1.92;;
41661;SDS011;27351;45.992;12.666;2024-02-26T13:06:32;6.43;;;2.33;;
41661;SDS011;27351;45.992;12.666;2024-02-26T13:08:59;5.70;;;2.40;;
41661;SDS011;27351;45.992;12.666;2024-02-26T13:11:25;7.20;;;2.87;;
41661;SDS011;27351;45.992;12.666;2024-02-26T13:13:51;5.70;;;3.00;;
41661;SDS011;27351;45.992;12.666;2024-02-26T13:16:16;5.03;;;2.50;;
41661;SDS011;27351;45.992;12.666;2024-02-26T13:18:42;7.80;;;2.80;;
41661;SDS011;27351;45.992;12.666;2024-02-26T13:23:34;6.40;;;2.73;;
41661;SDS011;27351;45.992;12.666;2024-02-26T13:26:00;5.13;;;2.47;;
41661;SDS011;27351;45.992;12.666;2024-02-26T13:28:25;6.27;;;2.60;;
41661;SDS011;27351;45.992;12.666;2024-02-26T13:30:53;5.43;;;2.35;;
41661;SDS011;27351;45.992;12.666;2024-02-26T13:33:21;6.57;;;2.80;;
41661;SDS011;27351;45.992;12.666;2024-02-26T13:35:47;5.28;;;2.20;;
41661;SDS011;27351;45.992;12.666;2024-02-26T13:38:13;5.20;;;2.33;;
41661;SDS011;27351;45.992;12.666;2024-02-26T13:40:38;6.20;;;2.17;;
41661;SDS011;27351;45.992;12.666;2024-02-26T13:43:07;7.25;;;2.30;;
41661;SDS011;27351;45.992;12.666;2024-02-26T13:45:36;6.60;;;2.50;;
41661;SDS011;27351;45.992;12.666;2024-02-26T13:48:06;5.38;;;2.38;;
41661;SDS011;27351;45.992;12.666;2024-02-26T13:50:32;6.43;;;2.33;;
41661;SDS011;27351;45.992;12.666;2024-02-26T13:52:58;6.40;;;2.63;;
41661;SDS011;27351;45.992;12.666;2024-02-26T13:55:27;5.67;;;2.50;;
41661;SDS011;27351;45.992;12.666;2024-02-26T13:57:56;4.38;;;2.53;;
41661;SDS011;27351;45.992;12.666;2024-02-26T14:00:22;5.70;;;2.53;;
41661;SDS011;27351;45.992;12.666;2024-02-26T14:02:48;5.68;;;2.33;;
41661;SDS011;27351;45.992;12.666;2024-02-26T14:05:13;7.78;;;3.10;;
41661;SDS011;27351;45.992;12.666;2024-02-26T14:07:39;5.57;;;2.85;;
41661;SDS011;27351;45.992;12.666;2024-02-26T14:10:05;7.78;;;2.90;;
41661;SDS011;27351;45.992;12.666;2024-02-26T14:12:30;6.78;;;2.97;;
41661;SDS011;27351;45.992;12.666;2024-02-26T14:14:56;9.82;;;3.20;;
41661;SDS011;27351;45.992;12.666;2024-02-26T14:17:24;7.70;;;3.05;;
41661;SDS011;27351;45.992;12.666;2024-02-26T14:19:49;7.70;;;3.22;;
41661;SDS011;27351;45.992;12.666;2024-02-26T14:22:15;9.13;;;3.53;;
41661;SDS011;27351;45.992;12.666;2024-02-26T14:24:41;8.20;;;4.00;;
41661;SDS011;27351;45.992;12.666;2024-02-26T14:27:12;9.17;;;3.87;;
41661;SDS011;27351;45.992;12.666;2024-02-26T14:29:41;8.53;;;3.77;;
41661;SDS011;27351;45.992;12.666;2024-02-26T14:32:08;7.90;;;3.58;;
41661;SDS011;27351;45.992;12.666;2024-02-26T14:34:34;7.82;;;3.20;;